Time;durP1;ratioP1;P1;durP2;ratioP2;P2;SDS_P1;SDS_P2;PMS_P1;PMS_P2;Temp;Humidity;BMP_temperature;BMP_pressure;BME280_temperature;BME280_humidity;BME280_pressure;Samples;Min_cycle;Max_cycle;Signal;HPM_P1;HPM_P2
2023/11/11 00:01:55;;;;;;;6.30;4.35;;;;;;;8.22;80.11;93854.00;5108118;28;20394;-68
2023/11/11 00:04:21;;;;;;;5.68;4.30;;;;;;;8.13;78.80;93832.34;5108480;27;20490;-68
2023/11/11 00:06:46;;;;;;;5.70;4.30;;;;;;;8.20;80.30;93841.19;5088501;28;20133;-68
2023/11/11 00:09:13;;;;;;;6.97;4.43;;;;;;;8.13;79.96;93816.00;5106153;27;20052;-68
2023/11/11 00:11:39;;;;;;;6.88;3.90;;;;;;;8.25;79.84;93833.03;5090115;28;20137;-68
2023/11/11 00:14:05;;;;;;;4.75;3.55;;;;;;;8.33;79.81;93809.88;5108422;28;20107;-69
2023/11/11 00:16:31;;;;;;;5.93;3.60;;;;;;;8.45;79.42;93837.28;5074048;28;20371;-68
2023/11/11 00:18:57;;;;;;;4.60;3.67;;;;;;;8.43;79.50;93834.00;5107083;27;20026;-68
2023/11/11 00:21:23;;;;;;;4.25;3.38;;;;;;;8.52;78.86;93814.22;5090115;28;20485;-68
2023/11/11 00:23:49;;;;;;;3.83;2.95;;;;;;;8.55;79.50;93818.31;5106462;28;20493;-68
2023/11/11 00:26:14;;;;;;;4.55;3.35;;;;;;;8.55;79.66;93805.38;5106560;28;20032;-68
2023/11/11 00:28:43;;;;;;;4.57;3.28;;;;;;;8.60;79.32;93785.88;5105512;28;20024;-69
2023/11/11 00:31:10;;;;;;;4.68;3.45;;;;;;;8.55;80.02;93792.44;5091318;28;20129;-68
2023/11/11 00:33:39;;;;;;;4.18;3.38;;;;;;;8.52;80.47;93790.13;5089178;28;20032;-68
2023/11/11 00:36:06;;;;;;;5.97;3.50;;;;;;;8.62;80.49;93804.69;5090394;28;20478;-68
2023/11/11 00:38:31;;;;;;;5.57;3.65;;;;;;;8.59;80.35;93801.56;5104935;28;20490;-68
2023/11/11 00:40:57;;;;;;;5.65;3.60;;;;;;;8.61;79.75;93797.03;5106530;28;20039;-68
2023/11/11 00:43:22;;;;;;;6.68;3.25;;;;;;;8.70;79.59;93798.81;5088906;28;20044;-68
2023/11/11 00:45:47;;;;;;;5.45;2.97;;;;;;;8.73;79.19;93791.56;5089088;28;20386;-68
2023/11/11 00:48:13;;;;;;;4.25;3.00;;;;;;;9.00;76.87;93794.34;5088193;28;20043;-68
2023/11/11 00:50:39;;;;;;;6.22;3.35;;;;;;;9.11;77.06;93805.34;5088888;28;20176;-68
2023/11/11 00:53:04;;;;;;;5.07;3.20;;;;;;;9.15;77.72;93808.47;5088811;28;20059;-68
2023/11/11 00:55:30;;;;;;;4.05;3.08;;;;;;;8.99;78.35;93790.94;5106255;28;20044;-68
2023/11/11 00:57:56;;;;;;;3.72;2.95;;;;;;;9.24;77.66;93781.69;5071157;28;20054;-68
2023/11/11 01:00:22;;;;;;;3.95;2.83;;;;;;;9.13;78.14;93800.00;5108847;28;20035;-68
2023/11/11 01:02:49;;;;;;;4.47;3.03;;;;;;;9.25;77.66;93796.28;5123041;27;20029;-69
2023/11/11 01:05:15;;;;;;;3.17;2.63;;;;;;;9.14;78.43;93814.63;5073179;28;20064;-68
2023/11/11 01:07:40;;;;;;;5.35;3.58;;;;;;;9.10;76.95;93813.25;5071983;28;20027;-68
2023/11/11 01:10:07;;;;;;;4.70;3.30;;;;;;;9.20;75.53;93797.69;5103200;28;20024;-68
2023/11/11 01:12:32;;;;;;;4.60;3.25;;;;;;;9.14;75.28;93799.06;5089469;28;20379;-68
2023/11/11 01:14:58;;;;;;;4.35;3.35;;;;;;;9.13;75.09;93828.50;5106502;28;20028;-68
2023/11/11 01:17:24;;;;;;;5.50;3.60;;;;;;;9.12;74.48;93798.41;5089122;28;20378;-68
2023/11/11 01:19:50;;;;;;;5.30;3.58;;;;;;;9.19;74.52;93773.53;5103873;28;20031;-68
2023/11/11 01:22:16;;;;;;;5.10;3.13;;;;;;;9.24;74.88;93776.50;5088940;28;20188;-68
2023/11/11 01:24:42;;;;;;;5.35;3.65;;;;;;;9.28;75.31;93783.06;5106369;28;20031;-68
2023/11/11 01:27:11;;;;;;;6.00;4.43;;;;;;;9.22;73.76;93794.00;5107517;28;20090;-68
2023/11/11 01:29:37;;;;;;;6.10;4.47;;;;;;;9.13;73.17;93800.00;5085291;28;20038;-68
2023/11/11 01:32:04;;;;;;;8.65;5.07;;;;;;;8.93;73.67;93775.97;5072415;28;20040;-68
2023/11/11 01:34:29;;;;;;;5.63;4.40;;;;;;;8.93;74.18;93760.44;5089376;28;20106;-68
2023/11/11 01:36:56;;;;;;;7.43;4.70;;;;;;;8.89;74.43;93770.25;5107656;28;20501;-68
2023/11/11 01:39:21;;;;;;;6.97;4.82;;;;;;;8.89;73.07;93814.28;5087130;28;20118;-68
2023/11/11 01:41:47;;;;;;;5.88;4.80;;;;;;;8.89;73.41;93813.47;5088867;28;20485;-68
2023/11/11 01:44:13;;;;;;;6.70;5.13;;;;;;;8.71;73.40;93793.47;5105407;28;20044;-68
2023/11/11 01:46:39;;;;;;;6.00;4.50;;;;;;;8.68;73.84;93775.63;5104466;28;20078;-68
2023/11/11 01:49:06;;;;;;;7.47;5.15;;;;;;;8.75;73.86;93788.00;5087257;28;20110;-68
2023/11/11 01:51:31;;;;;;;7.35;4.93;;;;;;;8.80;73.29;93804.75;5105570;28;20027;-68
2023/11/11 01:53:57;;;;;;;6.75;5.20;;;;;;;8.63;73.52;93792.53;5071353;28;20034;-68
2023/11/11 01:56:24;;;;;;;7.13;5.20;;;;;;;8.54;74.15;93794.19;5104119;28;20062;-68
2023/11/11 01:58:49;;;;;;;8.27;5.45;;;;;;;8.59;73.78;93786.03;5087351;28;20147;-68
2023/11/11 02:01:15;;;;;;;7.90;4.88;;;;;;;8.62;73.90;93780.56;5106091;28;20027;-68
2023/11/11 02:03:41;;;;;;;6.70;4.40;;;;;;;8.64;73.52;93787.25;5071805;28;20036;-68
2023/11/11 02:06:07;;;;;;;6.20;4.72;;;;;;;8.55;73.48;93771.72;5105263;28;20062;-68
2023/11/11 02:08:33;;;;;;;5.63;4.55;;;;;;;8.52;74.04;93769.41;5086700;28;20031;-68
2023/11/11 02:11:00;;;;;;;7.82;5.20;;;;;;;8.57;73.85;93786.16;5092184;28;20424;-68
2023/11/11 02:13:25;;;;;;;6.30;4.65;;;;;;;8.52;73.43;93753.88;5074492;28;20023;-68
2023/11/11 02:15:51;;;;;;;7.10;4.60;;;;;;;8.56;73.70;93757.84;5108662;28;20062;-68
2023/11/11 02:18:17;;;;;;;7.57;5.05;;;;;;;8.52;73.62;93762.47;5107372;28;20024;-68
2023/11/11 02:20:42;;;;;;;5.82;4.57;;;;;;;8.54;73.26;93752.78;5092567;28;20036;-68
2023/11/11 02:23:08;;;;;;;6.65;4.13;;;;;;;8.68;73.18;93751.53;5091731;28;20394;-68
2023/11/11 02:25:33;;;;;;;5.78;4.35;;;;;;;8.66;72.84;93753.44;5092984;28;20046;-68
2023/11/11 02:27:59;;;;;;;6.57;4.65;;;;;;;8.71;72.70;93748.66;5107587;28;20028;-68
2023/11/11 02:30:24;;;;;;;7.10;4.72;;;;;;;8.60;72.51;93743.63;5075579;28;20040;-68
2023/11/11 02:32:50;;;;;;;7.60;5.35;;;;;;;8.53;73.10;93747.75;5091818;28;20034;-68
2023/11/11 02:35:15;;;;;;;6.72;4.97;;;;;;;8.56;72.81;93756.06;5109900;28;20028;-68
2023/11/11 02:37:41;;;;;;;6.35;5.10;;;;;;;8.36;72.92;93724.22;5092046;28;20513;-68
2023/11/11 02:40:12;;;;;;;7.70;4.88;;;;;;;8.49;73.23;93744.63;5107286;28;20031;-68
2023/11/11 02:42:39;;;;;;;;;;;;;;;8.48;72.87;93746.41;5108540;28;20065;-68
2023/11/11 02:45:05;;;;;;;6.43;5.00;;;;;;;8.30;73.60;93732.50;5091777;28;19922;-68
2023/11/11 02:47:31;;;;;;;10.07;4.85;;;;;;;8.21;73.75;93717.81;5091893;28;20138;-68
2023/11/11 02:49:57;;;;;;;8.00;5.03;;;;;;;8.36;74.04;93731.13;5105606;28;20268;-68
2023/11/11 02:52:23;;;;;;;6.53;4.80;;;;;;;8.36;73.61;93729.38;5108943;28;20386;-69
2023/11/11 02:54:48;;;;;;;6.38;4.70;;;;;;;8.33;73.83;93731.41;5108758;28;20093;-68
2023/11/11 02:57:13;;;;;;;6.53;4.72;;;;;;;8.37;73.73;93718.06;5091364;28;20573;-68
2023/11/11 02:59:40;;;;;;;6.90;4.72;;;;;;;8.39;73.65;93742.06;5105386;28;20111;-68
2023/11/11 03:02:05;;;;;;;8.48;5.13;;;;;;;8.48;73.01;93755.94;5110684;28;20032;-68
2023/11/11 03:04:31;;;;;;;7.65;5.18;;;;;;;8.37;73.49;93717.25;5109146;28;20500;-69
2023/11/11 03:06:57;;;;;;;5.80;4.00;;;;;;;8.42;74.41;93730.63;5092324;28;20032;-68
2023/11/11 03:09:22;;;;;;;5.07;3.72;;;;;;;8.50;75.41;93743.69;5087447;28;20058;-69
2023/11/11 03:11:50;;;;;;;6.20;4.22;;;;;;;8.47;74.57;93742.19;5109109;28;20028;-68
2023/11/11 03:14:19;;;;;;;8.07;4.75;;;;;;;8.55;73.61;93740.66;5091528;28;20111;-68
2023/11/11 03:16:44;;;;;;;6.15;4.35;;;;;;;8.45;73.37;93738.09;5108726;28;20040;-68
2023/11/11 03:19:09;;;;;;;4.68;3.55;;;;;;;8.43;74.12;93724.47;5104249;28;20520;-68
2023/11/11 03:21:35;;;;;;;5.70;3.88;;;;;;;8.55;74.85;93728.53;5090424;28;20040;-68
2023/11/11 03:24:02;;;;;;;6.43;4.18;;;;;;;8.55;74.07;93735.47;5108452;28;20085;-68
2023/11/11 03:26:27;;;;;;;6.30;3.90;;;;;;;8.47;75.02;93723.25;5107645;28;20036;-68
2023/11/11 03:28:53;;;;;;;4.63;3.30;;;;;;;8.56;75.13;93717.22;5107377;28;20042;-68
2023/11/11 03:31:19;;;;;;;5.53;3.65;;;;;;;8.89;75.08;93726.22;5108544;28;20028;-69
2023/11/11 03:33:45;;;;;;;5.22;3.53;;;;;;;8.68;74.12;93707.50;5091672;28;20035;-68
2023/11/11 03:36:11;;;;;;;4.47;2.35;;;;;;;9.42;72.52;93735.09;5109312;28;20041;-69
2023/11/11 03:38:37;;;;;;;6.50;2.55;;;;;;;9.69;71.49;93729.00;5110413;28;20024;-68
2023/11/11 03:41:02;;;;;;;3.33;2.38;;;;;;;9.84;71.08;93721.56;5109659;28;20035;-68
2023/11/11 03:43:28;;;;;;;3.70;2.40;;;;;;;9.93;70.37;93706.88;5088851;28;20505;-69
2023/11/11 03:45:53;;;;;;;3.20;2.20;;;;;;;9.95;70.70;93699.75;5135945;27;20028;-69
2023/11/11 03:48:19;;;;;;;5.10;2.15;;;;;;;10.07;70.48;93691.56;5110007;28;20485;-69
2023/11/11 03:50:44;;;;;;;2.42;1.60;;;;;;;10.17;70.01;93688.91;5110160;28;20035;-68
2023/11/11 03:53:10;;;;;;;3.22;2.30;;;;;;;10.28;70.45;93686.09;5110813;28;20035;-69
2023/11/11 03:55:36;;;;;;;2.88;2.20;;;;;;;10.22;71.90;93691.00;5111661;28;20031;-69
2023/11/11 03:58:01;;;;;;;5.10;3.55;;;;;;;10.03;69.70;93712.78;5111516;28;20067;-68
2023/11/11 04:00:27;;;;;;;7.70;3.72;;;;;;;9.88;69.05;93709.09;5110838;28;20024;-68
2023/11/11 04:02:53;;;;;;;5.95;4.00;;;;;;;9.69;69.10;93725.63;5109762;28;20445;-69
2023/11/11 04:05:20;;;;;;;5.10;3.92;;;;;;;9.38;70.09;93707.81;5112444;28;20038;-68
2023/11/11 04:07:47;;;;;;;7.45;4.13;;;;;;;8.96;70.42;93679.84;5090284;28;20067;-69
2023/11/11 04:10:12;;;;;;;9.05;4.28;;;;;;;9.13;70.84;93710.16;5091242;28;20031;-68
2023/11/11 04:12:39;;;;;;;6.45;4.47;;;;;;;8.94;70.98;93681.75;5111046;28;20032;-68
2023/11/11 04:15:06;;;;;;;6.57;4.53;;;;;;;8.95;71.52;93665.28;5111339;28;20020;-68
2023/11/11 04:17:31;;;;;;;5.70;3.97;;;;;;;8.78;72.25;93635.78;5110507;28;20032;-68
2023/11/11 04:19:57;;;;;;;5.05;3.70;;;;;;;8.84;72.53;93627.44;5112228;28;20543;-69
2023/11/11 04:22:22;;;;;;;5.07;3.58;;;;;;;9.02;73.05;93653.34;5111751;28;20040;-69
2023/11/11 04:24:48;;;;;;;6.35;4.43;;;;;;;9.02;72.11;93670.66;5110805;28;20024;-69
2023/11/11 04:27:13;;;;;;;6.03;4.22;;;;;;;9.00;71.99;93675.19;5111497;28;20028;-68
2023/11/11 04:29:40;;;;;;;5.57;4.00;;;;;;;8.85;72.17;93654.94;5094052;28;20055;-69
2023/11/11 04:32:07;;;;;;;4.72;3.33;;;;;;;8.77;72.62;93654.84;5094593;28;20224;-68
2023/11/11 04:34:33;;;;;;;5.40;3.20;;;;;;;8.71;73.17;93620.00;5111046;28;20026;-69
2023/11/11 04:36:59;;;;;;;5.25;3.60;;;;;;;8.93;73.67;93651.63;5112844;28;20032;-68
2023/11/11 04:39:24;;;;;;;6.10;3.95;;;;;;;8.69;72.82;93652.16;5128117;27;20405;-68
2023/11/11 04:41:50;;;;;;;6.80;3.83;;;;;;;8.69;73.01;93678.06;5145620;27;20031;-68
2023/11/11 04:44:16;;;;;;;6.15;4.10;;;;;;;8.66;72.92;93675.75;5126985;27;20048;-68
2023/11/11 04:46:41;;;;;;;5.35;3.80;;;;;;;8.52;73.50;93652.94;5090659;28;20036;-68
2023/11/11 04:49:07;;;;;;;5.07;4.10;;;;;;;8.60;74.22;93665.97;5090580;28;20475;-68
2023/11/11 04:51:32;;;;;;;5.70;4.15;;;;;;;8.62;74.65;93666.66;5107374;28;20043;-68
2023/11/11 04:53:58;;;;;;;6.45;4.30;;;;;;;8.55;75.92;93668.16;5110128;28;20019;-68
2023/11/11 04:56:23;;;;;;;6.18;3.90;;;;;;;8.52;76.54;93669.28;5076483;28;20035;-69
2023/11/11 04:58:49;;;;;;;7.10;4.03;;;;;;;8.76;77.83;93676.53;5093484;28;20034;-69
2023/11/11 05:01:15;;;;;;;6.15;3.30;;;;;;;8.72;78.47;93682.97;5110456;28;20089;-69
2023/11/11 05:03:40;;;;;;;5.97;3.35;;;;;;;8.65;79.54;93658.59;5110164;27;20032;-69
2023/11/11 05:06:06;;;;;;;4.97;3.17;;;;;;;8.94;80.47;93663.63;5111712;28;20064;-69
2023/11/11 05:08:32;;;;;;;3.75;2.85;;;;;;;8.99;80.92;93650.25;5093150;28;20096;-68
2023/11/11 05:10:57;;;;;;;4.88;3.00;;;;;;;8.87;81.40;93642.69;5111528;28;20036;-68
2023/11/11 05:13:24;;;;;;;5.03;3.80;;;;;;;9.03;81.20;93634.28;5143980;27;20024;-69
2023/11/11 05:15:59;;;;;;;8.52;4.55;;;;;;;8.81;82.49;93613.97;5093196;28;20039;-69
2023/11/11 05:18:25;;;;;;;8.38;4.40;;;;;;;8.87;83.12;93606.41;5092483;28;20035;-68
2023/11/11 05:20:51;;;;;;;5.22;3.92;;;;;;;8.84;82.37;93617.06;5109751;28;20488;-68
2023/11/11 05:23:17;;;;;;;6.20;4.00;;;;;;;8.74;81.12;93637.03;5111378;28;20035;-68
2023/11/11 05:25:42;;;;;;;9.10;4.88;;;;;;;8.55;79.63;93650.06;5109411;28;20119;-68
2023/11/11 05:28:08;;;;;;;6.22;4.20;;;;;;;8.37;79.65;93609.38;5109202;28;20065;-68
2023/11/11 05:30:33;;;;;;;6.22;4.30;;;;;;;8.50;79.52;93584.00;5093193;28;20504;-68
2023/11/11 05:32:59;;;;;;;8.77;4.43;;;;;;;8.40;80.43;93616.88;5110124;28;20016;-68
2023/11/11 05:35:24;;;;;;;7.70;5.00;;;;;;;8.32;80.15;93600.41;5144614;27;20497;-68
2023/11/11 05:37:50;;;;;;;8.32;5.10;;;;;;;8.34;80.43;93627.78;5093063;28;20034;-68
2023/11/11 05:40:34;;;;;;;6.80;4.72;;;;;;;8.29;79.71;93668.78;5127115;27;20482;-68
2023/11/11 05:43:00;;;;;;;6.50;4.60;;;;;;;8.17;79.88;93636.28;5106325;28;20023;-69
2023/11/11 05:45:25;;;;;;;8.43;4.82;;;;;;;8.26;79.70;93648.38;5088039;28;20155;-68
2023/11/11 05:47:51;;;;;;;6.90;4.10;;;;;;;8.23;79.66;93620.19;5107317;28;20444;-68
2023/11/11 05:50:16;;;;;;;5.00;4.00;;;;;;;8.52;79.08;93629.63;5088911;28;20035;-69
2023/11/11 05:52:42;;;;;;;5.70;4.40;;;;;;;8.47;80.51;93636.06;5105665;27;20421;-68
2023/11/11 05:55:08;;;;;;;6.30;4.50;;;;;;;8.43;80.36;93650.25;5088162;28;20054;-68
2023/11/11 05:57:35;;;;;;;6.78;4.05;;;;;;;8.39;79.31;93637.75;5089934;28;20024;-68
2023/11/11 06:00:02;;;;;;;6.90;3.83;;;;;;;8.37;79.79;93622.31;5107193;28;20032;-69
2023/11/11 06:02:27;;;;;;;5.88;3.65;;;;;;;8.56;80.32;93628.41;5105694;28;20517;-68
2023/11/11 06:04:53;;;;;;;5.43;3.65;;;;;;;8.65;79.80;93622.34;5089612;28;20053;-68
2023/11/11 06:07:18;;;;;;;5.22;3.58;;;;;;;8.67;79.99;93635.97;5085500;28;20028;-69
2023/11/11 06:09:43;;;;;;;6.00;3.88;;;;;;;8.58;80.09;93639.41;5105847;28;20036;-68
2023/11/11 06:12:09;;;;;;;5.18;3.85;;;;;;;8.60;78.55;93624.56;5087404;28;20032;-68
2023/11/11 06:14:34;;;;;;;4.85;3.40;;;;;;;8.57;79.03;93615.31;5087862;28;20031;-69
2023/11/11 06:17:00;;;;;;;5.65;4.45;;;;;;;8.71;79.13;93596.69;5087422;28;20036;-69
2023/11/11 06:19:26;;;;;;;5.13;3.88;;;;;;;8.83;79.61;93610.28;5106567;28;20099;-68
2023/11/11 06:21:52;;;;;;;5.32;3.97;;;;;;;8.68;80.02;93622.06;5089052;28;20031;-68
2023/11/11 06:24:18;;;;;;;4.68;3.45;;;;;;;8.75;77.55;93605.00;5088536;28;20047;-68
2023/11/11 06:26:43;;;;;;;5.35;3.65;;;;;;;8.73;77.85;93618.09;5086510;28;20035;-68
2023/11/11 06:29:08;;;;;;;4.85;3.35;;;;;;;8.76;77.97;93642.06;5105491;28;20023;-68
2023/11/11 06:31:34;;;;;;;5.55;4.25;;;;;;;8.66;77.17;93613.63;5105407;28;20105;-68
2023/11/11 06:34:00;;;;;;;5.75;4.35;;;;;;;8.47;77.17;93611.97;5105664;28;20024;-68
2023/11/11 06:36:26;;;;;;;6.00;3.80;;;;;;;8.78;76.18;93617.66;5104425;28;20414;-68
2023/11/11 06:38:51;;;;;;;5.80;4.15;;;;;;;8.77;76.42;93608.25;5088320;28;20032;-68
2023/11/11 06:41:18;;;;;;;7.07;3.20;;;;;;;8.78;76.67;93614.25;5089021;28;20047;-68
2023/11/11 06:43:44;;;;;;;5.18;3.65;;;;;;;8.91;77.77;93632.84;5101797;28;20054;-68
2023/11/11 06:46:10;;;;;;;4.50;3.35;;;;;;;8.93;76.03;93641.28;5087195;28;20032;-68
2023/11/11 06:48:35;;;;;;;6.32;3.75;;;;;;;9.01;74.68;93637.97;5105314;28;20027;-68
2023/11/11 06:51:01;;;;;;;4.63;3.63;;;;;;;9.03;75.60;93647.22;5104862;28;20032;-68
2023/11/11 06:53:26;;;;;;;5.47;3.80;;;;;;;9.07;74.65;93637.38;5107025;28;20028;-68
2023/11/11 06:55:52;;;;;;;5.18;4.03;;;;;;;9.19;75.28;93625.81;5104227;28;20040;-68
2023/11/11 06:58:17;;;;;;;2.95;1.95;;;;;;;9.47;71.99;93582.53;5093963;28;20106;-68
2023/11/11 07:00:43;;;;;;;2.28;1.73;;;;;;;9.82;71.43;93578.22;5110716;28;20042;-68
2023/11/11 07:03:11;;;;;;;2.35;1.50;;;;;;;10.21;68.40;93568.22;5075187;28;20023;-69
2023/11/11 07:05:36;;;;;;;3.28;1.70;;;;;;;10.43;67.09;93594.66;5075428;28;20191;-68
2023/11/11 07:08:05;;;;;;;2.15;1.35;;;;;;;10.39;67.75;93594.16;5108968;28;20449;-69
2023/11/11 07:10:34;;;;;;;1.70;1.23;;;;;;;10.95;64.02;93599.72;5109432;28;20043;-68
2023/11/11 07:13:00;;;;;;;2.38;1.40;;;;;;;10.93;64.46;93601.63;5107784;28;20028;-68
2023/11/11 07:15:27;;;;;;;2.75;1.25;;;;;;;10.97;63.63;93579.56;5106512;28;20671;-70
2023/11/11 07:17:53;;;;;;;3.80;2.65;;;;;;;10.90;65.63;93568.19;5108929;28;20019;-69
2023/11/11 07:20:21;;;;;;;3.17;2.40;;;;;;;10.93;65.53;93562.66;5091734;28;20051;-68
2023/11/11 07:22:49;;;;;;;3.35;2.22;;;;;;;11.03;64.36;93571.16;5091127;28;20023;-68
2023/11/11 07:25:16;;;;;;;3.58;1.80;;;;;;;10.96;63.46;93583.94;5089406;28;20027;-68
2023/11/11 07:27:41;;;;;;;2.88;1.50;;;;;;;10.82;62.57;93555.97;5108482;28;20038;-68
2023/11/11 07:30:10;;;;;;;2.70;1.90;;;;;;;10.96;65.45;93580.53;5106277;28;20027;-69
2023/11/11 07:32:37;;;;;;;2.78;1.48;;;;;;;10.90;63.71;93555.19;5107408;28;20520;-66
2023/11/11 07:35:02;;;;;;;3.53;2.05;;;;;;;10.84;66.52;93522.06;5107052;27;20020;-66
2023/11/11 07:37:28;;;;;;;5.03;3.00;;;;;;;10.80;65.58;93536.34;5107327;27;20083;-66
2023/11/11 07:39:54;;;;;;;3.92;2.70;;;;;;;10.74;66.08;93543.78;5110075;27;20027;-66
2023/11/11 07:42:19;;;;;;;4.80;3.50;;;;;;;10.80;67.08;93554.50;5108348;27;20153;-66
2023/11/11 07:44:45;;;;;;;6.72;3.85;;;;;;;10.66;66.93;93542.94;5108326;27;20544;-67
2023/11/11 07:47:10;;;;;;;5.45;3.65;;;;;;;10.28;67.18;93519.16;5087384;28;20027;-66
2023/11/11 07:49:36;;;;;;;5.10;3.88;;;;;;;10.31;67.65;93538.75;5108289;28;20035;-66
2023/11/11 07:52:02;;;;;;;6.05;4.40;;;;;;;10.24;67.81;93565.31;5090081;28;20512;-67
2023/11/11 07:54:29;;;;;;;5.85;3.90;;;;;;;10.13;67.73;93547.44;5109435;27;20032;-67
2023/11/11 07:56:56;;;;;;;4.78;3.50;;;;;;;10.03;68.27;93518.22;5104518;28;20024;-66
2023/11/11 07:59:22;;;;;;;8.80;3.75;;;;;;;10.09;67.86;93532.34;5090164;28;20031;-66
2023/11/11 08:01:48;;;;;;;5.40;4.22;;;;;;;9.99;68.29;93533.25;5107343;28;20658;-67
2023/11/11 08:04:13;;;;;;;10.85;9.07;;;;;;;9.87;68.46;93541.47;5107428;28;20031;-68
2023/11/11 08:06:39;;;;;;;6.85;4.60;;;;;;;9.91;68.77;93548.75;5105261;28;20027;-67
2023/11/11 08:09:04;;;;;;;7.10;4.05;;;;;;;9.79;68.98;93524.88;5090051;28;20020;-68
2023/11/11 08:11:29;;;;;;;5.25;3.60;;;;;;;9.98;69.22;93538.59;5109135;28;20035;-65
2023/11/11 08:13:55;;;;;;;5.38;3.22;;;;;;;9.96;69.55;93530.97;5107829;28;20441;-66
2023/11/11 08:16:21;;;;;;;7.25;3.20;;;;;;;10.00;69.00;93531.47;5103972;28;20047;-66
2023/11/11 08:18:48;;;;;;;4.85;3.00;;;;;;;10.14;67.96;93533.50;5107626;28;20047;-65
2023/11/11 08:21:13;;;;;;;4.65;3.55;;;;;;;10.26;67.54;93524.47;5108555;28;20059;-65
2023/11/11 08:23:39;;;;;;;4.45;3.00;;;;;;;10.40;67.81;93523.09;5108446;27;20093;-66
2023/11/11 08:26:05;;;;;;;6.07;3.65;;;;;;;10.27;68.24;93517.50;5105446;28;20027;-65
2023/11/11 08:28:31;;;;;;;5.20;3.75;;;;;;;10.61;69.35;93525.22;5106166;28;20039;-65
2023/11/11 08:30:56;;;;;;;7.32;3.92;;;;;;;10.60;69.42;93509.84;5107126;28;20425;-65
2023/11/11 08:33:22;;;;;;;4.40;3.10;;;;;;;10.74;68.50;93502.22;5106439;27;20039;-65
2023/11/11 08:35:49;;;;;;;5.72;4.20;;;;;;;10.70;67.94;93506.13;5104507;28;20046;-65
2023/11/11 08:38:14;;;;;;;4.80;3.55;;;;;;;10.84;66.60;93496.09;5106463;28;20066;-65
2023/11/11 08:40:39;;;;;;;5.85;4.28;;;;;;;11.30;66.49;93504.22;5108593;28;20413;-65
2023/11/11 08:43:05;;;;;;;7.60;5.28;;;;;;;11.42;66.45;93508.09;5072849;28;20031;-66
2023/11/11 08:45:30;;;;;;;10.45;6.63;;;;;;;11.55;64.68;93502.41;5101313;28;21010;-66
2023/11/11 08:47:56;;;;;;;17.63;6.85;;;;;;;11.56;65.54;93498.81;5089020;28;20084;-67
2023/11/11 08:50:21;;;;;;;6.90;5.03;;;;;;;11.85;65.50;93501.72;5088521;28;20077;-67
2023/11/11 08:52:48;;;;;;;6.90;4.32;;;;;;;12.22;64.15;93513.31;5104487;28;20034;-66
2023/11/11 08:55:13;;;;;;;8.05;5.20;;;;;;;12.16;63.61;93508.00;5084740;28;20063;-67
2023/11/11 08:57:39;;;;;;;7.32;3.90;;;;;;;12.42;61.71;93500.72;5102925;28;20028;-67
2023/11/11 09:00:09;;;;;;;9.75;3.58;;;;;;;12.26;62.70;93486.00;5107499;28;20027;-66
2023/11/11 09:02:38;;;;;;;6.75;3.53;;;;;;;12.21;63.21;93516.94;5089367;28;20050;-68
2023/11/11 09:05:05;;;;;;;6.78;4.57;;;;;;;12.40;63.28;93518.31;5105479;28;20020;-68
2023/11/11 09:07:31;;;;;;;5.10;3.50;;;;;;;12.34;62.71;93498.19;5109587;28;20039;-68
2023/11/11 09:09:57;;;;;;;5.10;3.80;;;;;;;12.62;60.28;93497.69;5107394;28;20047;-68
2023/11/11 09:12:23;;;;;;;4.45;2.90;;;;;;;12.74;60.27;93478.91;5108019;28;20035;-67
2023/11/11 09:14:48;;;;;;;4.00;3.20;;;;;;;12.87;60.79;93477.50;5107786;28;20019;-67
2023/11/11 09:17:14;;;;;;;4.30;2.40;;;;;;;12.84;60.84;93476.09;5109332;28;20039;-67
2023/11/11 09:19:39;;;;;;;4.55;2.78;;;;;;;13.10;58.20;93441.84;5106749;28;20035;-67
2023/11/11 09:22:05;;;;;;;5.93;3.35;;;;;;;13.13;58.52;93440.69;5107800;28;20080;-67
2023/11/11 09:24:30;;;;;;;4.28;2.60;;;;;;;13.21;57.69;93437.19;5110286;28;20092;-67
2023/11/11 09:26:56;;;;;;;4.10;2.50;;;;;;;13.12;57.88;93426.84;5110480;28;20039;-67
2023/11/11 09:29:21;;;;;;;6.85;3.30;;;;;;;13.02;58.41;93408.00;5110179;28;20043;-67
2023/11/11 09:31:47;;;;;;;3.50;1.98;;;;;;;13.22;56.97;93429.19;5111048;28;20031;-67
2023/11/11 09:34:12;;;;;;;1.80;1.02;;;;;;;13.39;56.17;93442.91;5109470;28;20031;-67
2023/11/11 09:36:39;;;;;;;2.53;1.48;;;;;;;13.66;55.04;93440.72;5110309;28;20032;-67
2023/11/11 09:39:14;;;;;;;1.25;0.70;;;;;;;13.51;55.11;93427.63;5093388;28;20023;-67
2023/11/11 09:41:42;;;;;;;1.70;0.80;;;;;;;13.75;54.12;93440.44;5110364;28;20032;-66
2023/11/11 09:44:08;;;;;;;1.00;0.70;;;;;;;13.56;54.55;93430.53;5093012;28;20054;-67
2023/11/11 09:46:40;;;;;;;1.05;0.52;;;;;;;13.88;52.25;93429.38;5111628;28;20031;-67
2023/11/11 09:49:06;;;;;;;1.45;0.60;;;;;;;13.75;52.97;93430.00;5076392;28;20485;-67
2023/11/11 09:51:32;;;;;;;1.30;0.60;;;;;;;13.55;53.76;93428.91;5093216;28;20043;-67
2023/11/11 09:53:57;;;;;;;0.95;0.52;;;;;;;13.60;53.08;93416.94;5110005;28;20114;-67
2023/11/11 09:56:23;;;;;;;1.00;0.50;;;;;;;13.51;53.44;93402.38;5093111;28;20032;-67
2023/11/11 09:58:50;;;;;;;0.90;0.55;;;;;;;13.56;54.11;93399.22;5093010;28;20031;-67
2023/11/11 10:01:16;;;;;;;2.28;0.50;;;;;;;13.71;52.81;93423.53;5093367;28;20035;-66
2023/11/11 10:03:41;;;;;;;1.10;0.50;;;;;;;13.70;52.08;93395.00;5109861;28;20405;-67
2023/11/11 10:06:07;;;;;;;1.08;0.50;;;;;;;13.77;54.16;93401.94;5092849;28;20035;-66
2023/11/11 10:08:32;;;;;;;0.70;0.50;;;;;;;13.44;54.61;93385.00;5092719;28;20399;-66
2023/11/11 10:10:57;;;;;;;1.90;0.50;;;;;;;13.44;54.73;93405.88;5109926;28;20035;-67
2023/11/11 10:13:23;;;;;;;2.55;0.60;;;;;;;13.56;54.42;93417.47;5109821;28;20058;-66
2023/11/11 10:15:48;;;;;;;1.23;0.68;;;;;;;13.48;54.53;93413.16;5092850;28;20481;-67
2023/11/11 10:18:14;;;;;;;1.40;0.70;;;;;;;13.43;56.22;93414.66;5092770;28;20076;-67
2023/11/11 10:20:44;;;;;;;0.95;0.70;;;;;;;13.14;57.18;93409.19;5111306;28;20070;-67
2023/11/11 10:23:15;;;;;;;1.00;0.50;;;;;;;13.19;58.68;93395.63;5092907;28;20024;-67
2023/11/11 10:25:40;;;;;;;;;;;;;;;13.16;59.26;93393.38;5093867;28;20130;-67
2023/11/11 10:28:07;;;;;;;1.10;0.60;;;;;;;13.10;59.69;93405.34;5110821;28;20011;-67
2023/11/11 10:30:33;;;;;;;0.50;0.40;;;;;;;13.09;60.03;93411.53;5093685;28;20827;-67
2023/11/11 10:33:04;;;;;;;2.65;0.80;;;;;;;12.77;60.13;93410.00;5113699;28;20047;-67
2023/11/11 10:35:29;;;;;;;1.13;0.67;;;;;;;12.71;60.28;93389.84;5114933;28;20035;-66
2023/11/11 10:37:55;;;;;;;0.93;0.50;;;;;;;12.90;60.80;93405.00;5114767;28;20270;-67
2023/11/11 10:40:21;;;;;;;2.83;0.60;;;;;;;12.80;62.10;93403.63;5113633;28;21893;-66
2023/11/11 10:42:47;;;;;;;1.05;0.65;;;;;;;12.64;62.62;93399.34;5113442;28;20056;-66
2023/11/11 10:45:14;;;;;;;0.60;0.40;;;;;;;12.51;63.27;93416.38;5079531;28;20081;-66
2023/11/11 10:47:39;;;;;;;0.93;0.40;;;;;;;12.46;63.21;93407.44;5096472;28;20023;-66
2023/11/11 10:50:07;;;;;;;1.02;0.50;;;;;;;11.82;65.69;93316.50;5113228;28;20035;-66
2023/11/11 10:52:33;;;;;;;0.60;0.45;;;;;;;12.45;66.50;93401.44;5096332;28;20035;-67
2023/11/11 10:54:58;;;;;;;0.98;0.50;;;;;;;12.36;65.90;93381.63;5096151;28;20405;-66
2023/11/11 10:57:24;;;;;;;1.15;0.50;;;;;;;12.36;65.14;93386.81;5096354;28;20478;-66
2023/11/11 10:59:49;;;;;;;1.27;0.57;;;;;;;12.37;65.18;93387.63;5096079;28;20398;-66
2023/11/11 11:02:14;;;;;;;1.23;0.70;;;;;;;12.41;64.79;93404.53;5113201;28;20031;-67
2023/11/11 11:04:44;;;;;;;0.90;0.60;;;;;;;12.37;65.41;93378.03;5114195;28;20028;-67
2023/11/11 11:07:12;;;;;;;0.98;0.60;;;;;;;12.51;66.25;93384.31;5113276;28;20051;-66
2023/11/11 11:09:44;;;;;;;0.90;0.50;;;;;;;12.63;66.51;93389.91;5113134;28;20040;-67
2023/11/11 11:12:18;;;;;;;1.60;0.70;;;;;;;12.68;67.06;93348.53;5096581;28;20032;-67
2023/11/11 11:14:43;;;;;;;1.50;0.90;;;;;;;13.19;67.74;93375.59;5112875;28;20081;-67
2023/11/11 11:17:09;;;;;;;0.70;0.50;;;;;;;13.38;62.55;93374.28;5112985;28;20032;-67
2023/11/11 11:20:04;;;;;;;1.67;0.75;;;;;;;13.56;62.13;93360.09;5112735;28;20039;-67
2023/11/11 11:22:39;;;;;;;1.00;0.70;;;;;;;13.54;60.78;93351.63;5112786;28;20082;-66
2023/11/11 11:25:33;;;;;;;1.25;0.70;;;;;;;13.50;60.32;93337.34;5096479;28;20024;-67
2023/11/11 11:28:14;;;;;;;1.52;0.60;;;;;;;13.74;59.28;93333.63;5112465;28;20114;-67
2023/11/11 11:30:53;;;;;;;1.02;0.65;;;;;;;13.74;58.72;93318.78;5113781;28;20047;-67
2023/11/11 11:33:39;;;;;;;1.55;0.60;;;;;;;13.90;56.99;93338.66;5111890;28;20529;-66
2023/11/11 11:36:09;;;;;;;1.02;0.70;;;;;;;13.96;57.54;93337.13;5112142;27;20100;-67